Time;durP1;ratioP1;P1;durP2;ratioP2;P2;SDS_P1;SDS_P2;PMS_P1;PMS_P2;Temp;Humidity;BMP_temperature;BMP_pressure;BME280_temperature;BME280_humidity;BME280_pressure;Samples;Min_cycle;Max_cycle;Signal;HPM_P1;HPM_P2
2022/01/06 00:00:40;;;;;;;5.53;1.63;;;;;;;4.07;96.80;99400.22;5073947;28;20113;-71
2022/01/06 00:03:10;;;;;;;3.67;1.30;;;;;;;4.06;97.21;99397.66;5073575;28;20390;-71
2022/01/06 00:05:39;;;;;;;3.63;1.40;;;;;;;4.10;97.50;99393.94;5073724;28;20048;-71
2022/01/06 00:08:08;;;;;;;3.58;1.30;;;;;;;4.07;96.74;99387.03;5073285;28;20155;-71
2022/01/06 00:10:36;;;;;;;3.47;1.40;;;;;;;4.05;96.86;99388.84;5073516;28;20037;-69
2022/01/06 00:13:11;;;;;;;4.70;1.75;;;;;;;4.07;96.88;99404.63;5073195;28;20394;-70
2022/01/06 00:15:55;;;;;;;3.97;1.40;;;;;;;4.03;97.69;99403.91;5073747;28;20044;-72
2022/01/06 00:18:33;;;;;;;6.28;1.85;;;;;;;4.05;97.56;99415.25;5073648;28;20048;-70
2022/01/06 00:23:46;;;;;;;3.88;1.40;;;;;;;4.02;98.38;99418.88;5073198;28;20037;-71
2022/01/06 00:26:15;;;;;;;4.82;1.48;;;;;;;4.06;96.97;99430.19;5072914;28;20105;-71
2022/01/06 00:28:44;;;;;;;5.63;1.50;;;;;;;4.05;97.28;99403.81;5073377;28;20078;-71
2022/01/06 00:31:12;;;;;;;5.82;1.73;;;;;;;3.99;96.79;99408.47;5072725;28;20093;-72
2022/01/06 00:33:41;;;;;;;5.10;2.03;;;;;;;4.02;97.93;99418.03;5073146;28;20440;-71
2022/01/06 00:36:09;;;;;;;4.13;1.30;;;;;;;3.96;97.30;99431.53;5073094;28;20055;-71
2022/01/06 00:38:37;;;;;;;7.57;2.00;;;;;;;3.95;97.81;99419.22;5073307;28;20086;-72
2022/01/06 00:41:05;;;;;;;5.68;1.63;;;;;;;4.00;97.08;99409.34;5072638;28;20040;-72
2022/01/06 00:43:33;;;;;;;4.97;1.60;;;;;;;3.92;97.46;99409.69;5073220;28;20051;-72
2022/01/06 00:46:03;;;;;;;4.75;1.38;;;;;;;3.96;96.89;99378.75;5072983;28;20401;-71
2022/01/06 00:48:32;;;;;;;4.90;1.50;;;;;;;3.94;96.77;99392.00;5072433;28;20504;-71
2022/01/06 00:51:00;;;;;;;2.22;1.40;;;;;;;3.93;97.20;99387.66;5072439;28;20090;-71
2022/01/06 00:53:28;;;;;;;5.47;1.30;;;;;;;3.89;97.46;99386.09;5073073;28;20396;-71
2022/01/06 00:55:56;;;;;;;4.97;1.48;;;;;;;3.88;97.54;99368.56;5072199;28;20045;-72
2022/01/06 00:58:24;;;;;;;3.53;1.52;;;;;;;3.89;97.02;99367.63;5072970;28;20047;-71
2022/01/06 01:00:53;;;;;;;5.70;1.48;;;;;;;3.88;97.17;99350.09;5072711;28;20056;-73
2022/01/06 01:03:23;;;;;;;4.07;1.40;;;;;;;3.93;96.99;99355.97;5072951;28;20044;-70
2022/01/06 01:05:54;;;;;;;3.95;1.45;;;;;;;3.92;97.86;99346.38;5072766;28;20040;-72
2022/01/06 01:08:24;;;;;;;3.45;1.55;;;;;;;3.86;97.49;99351.94;5072848;28;20041;-71
2022/01/06 01:10:56;;;;;;;5.30;1.65;;;;;;;3.80;98.38;99378.59;5072587;28;20041;-71
2022/01/06 01:13:30;;;;;;;5.15;1.55;;;;;;;3.81;98.67;99346.03;5072814;28;20036;-71
2022/01/06 01:16:08;;;;;;;3.47;1.60;;;;;;;3.92;97.92;99340.22;5072585;28;20040;-72
2022/01/06 01:18:45;;;;;;;4.47;1.40;;;;;;;3.85;98.48;99342.28;5072639;28;20106;-71
2022/01/06 01:21:13;;;;;;;4.47;1.63;;;;;;;3.89;98.46;99333.31;5072259;28;20078;-71
2022/01/06 01:23:42;;;;;;;5.95;1.58;;;;;;;3.84;98.32;99330.03;5072608;28;20086;-71
2022/01/06 01:26:10;;;;;;;6.28;1.70;;;;;;;3.89;98.05;99335.97;5072411;28;20040;-71
2022/01/06 01:28:44;;;;;;;4.15;1.45;;;;;;;3.89;98.55;99346.53;5072364;28;20551;-71
2022/01/06 01:31:24;;;;;;;3.17;1.20;;;;;;;3.89;97.55;99343.88;5072021;28;20064;-72
2022/01/06 01:33:57;;;;;;;6.25;1.45;;;;;;;3.86;98.40;99349.31;5072851;28;20071;-71
2022/01/06 01:36:25;;;;;;;;;;;;;;;3.87;98.16;99355.44;5072726;28;20051;-72
2022/01/06 01:38:54;;;;;;;4.30;1.55;;;;;;;3.86;98.72;99367.78;5072254;28;19928;-74
2022/01/06 01:41:22;;;;;;;5.78;1.60;;;;;;;3.91;98.87;99372.81;5072626;28;20048;-71
2022/01/06 01:43:53;;;;;;;4.88;1.40;;;;;;;3.92;98.12;99379.81;5072679;28;20106;-71
2022/01/06 01:46:28;;;;;;;4.28;1.63;;;;;;;3.91;98.96;99373.69;5072414;28;20075;-71
2022/01/06 01:49:15;;;;;;;4.40;1.50;;;;;;;3.87;98.43;99377.41;5072289;28;20040;-72
2022/01/06 01:51:45;;;;;;;3.65;1.50;;;;;;;3.88;98.92;99371.19;5072212;28;20044;-72
2022/01/06 01:54:13;;;;;;;5.45;1.67;;;;;;;3.87;99.84;99355.44;5071920;28;20218;-71
2022/01/06 01:56:42;;;;;;;2.97;1.40;;;;;;;3.89;99.32;99345.66;5072472;28;20048;-71
2022/01/06 01:59:11;;;;;;;7.15;1.70;;;;;;;3.94;98.33;99336.59;5071699;28;20131;-71
2022/01/06 02:01:39;;;;;;;2.72;1.30;;;;;;;3.88;99.34;99331.63;5075880;28;20040;-71
2022/01/06 02:04:09;;;;;;;5.20;2.05;;;;;;;3.93;99.16;99334.88;5075896;28;20079;-71
2022/01/06 02:06:37;;;;;;;4.95;1.70;;;;;;;3.92;98.77;99349.00;5076002;28;20511;-71
2022/01/06 02:09:05;;;;;;;5.43;1.63;;;;;;;3.93;97.68;99339.31;5075645;28;20052;-72
2022/01/06 02:11:33;;;;;;;2.88;1.60;;;;;;;3.88;98.28;99336.91;5075980;28;20045;-71
2022/01/06 02:14:05;;;;;;;5.18;1.98;;;;;;;3.86;99.48;99341.41;5074587;28;20053;-72
2022/01/06 02:16:33;;;;;;;3.22;1.65;;;;;;;3.88;98.73;99352.72;5076004;28;20051;-71
2022/01/06 02:19:01;;;;;;;3.33;1.30;;;;;;;3.80;99.19;99360.13;5075235;28;20040;-71
2022/01/06 02:21:31;;;;;;;4.88;1.60;;;;;;;3.82;99.08;99374.09;5075512;28;20119;-72
2022/01/06 02:23:59;;;;;;;3.35;1.27;;;;;;;3.87;100.00;99372.13;5075105;28;20071;-71
2022/01/06 02:26:27;;;;;;;3.80;1.48;;;;;;;3.85;99.08;99383.66;5075759;28;20044;-70
2022/01/06 02:28:56;;;;;;;5.18;1.80;;;;;;;3.83;99.11;99391.66;5075536;28;20478;-76
2022/01/06 02:31:24;;;;;;;4.30;1.52;;;;;;;3.82;99.58;99379.38;5075554;28;20075;-71
2022/01/06 02:33:53;;;;;;;5.35;1.73;;;;;;;3.83;100.00;99367.91;5075119;28;20505;-71
2022/01/06 02:36:21;;;;;;;5.03;1.60;;;;;;;3.79;100.00;99354.94;5075492;28;20474;-70
2022/01/06 02:38:51;;;;;;;5.45;1.58;;;;;;;3.88;99.48;99330.78;5075449;28;20044;-71
2022/01/06 02:41:19;;;;;;;2.65;1.40;;;;;;;3.89;99.51;99328.06;5074827;28;20044;-70
2022/01/06 02:43:50;;;;;;;4.25;1.52;;;;;;;3.85;99.83;99325.63;5075348;28;20042;-71
2022/01/06 02:46:18;;;;;;;6.07;1.70;;;;;;;3.76;100.00;99332.19;5075098;28;20486;-72
2022/01/06 02:48:46;;;;;;;3.13;1.50;;;;;;;3.78;99.60;99330.34;5075188;28;20075;-71
2022/01/06 02:51:14;;;;;;;4.35;1.50;;;;;;;3.83;98.90;99323.06;5074798;28;20432;-73
2022/01/06 02:53:43;;;;;;;5.63;1.63;;;;;;;3.82;98.96;99318.72;5074846;28;20037;-73
2022/01/06 02:56:13;;;;;;;2.63;1.27;;;;;;;3.80;99.34;99333.75;5074774;28;20048;-71
2022/01/06 02:58:42;;;;;;;3.05;1.40;;;;;;;3.79;100.00;99332.06;5075154;28;20079;-71
2022/01/06 03:01:10;;;;;;;3.47;1.67;;;;;;;3.76;100.00;99360.34;5074752;28;20068;-72
2022/01/06 03:03:39;;;;;;;5.68;1.77;;;;;;;3.77;100.00;99365.56;5075122;28;20044;-71
2022/01/06 03:06:09;;;;;;;4.32;1.75;;;;;;;3.77;100.00;99381.41;5074446;28;20494;-72
2022/01/06 03:08:38;;;;;;;5.05;1.80;;;;;;;3.81;99.85;99387.38;5074541;28;20044;-72
2022/01/06 03:11:07;;;;;;;4.88;1.52;;;;;;;3.84;100.00;99388.06;5074151;28;20040;-71
2022/01/06 03:13:36;;;;;;;3.47;1.40;;;;;;;3.77;100.00;99405.13;5074499;28;20067;-70
2022/01/06 03:16:06;;;;;;;4.07;1.77;;;;;;;3.74;100.00;99403.47;5074516;28;20448;-71
2022/01/06 03:18:34;;;;;;;4.25;1.52;;;;;;;3.73;100.00;99406.19;5074680;28;20251;-72
2022/01/06 03:21:02;;;;;;;3.90;1.58;;;;;;;3.76;100.00;99407.81;5074311;28;20056;-70
2022/01/06 03:23:31;;;;;;;3.33;1.45;;;;;;;3.79;100.00;99411.19;5074575;28;20037;-72
2022/01/06 03:25:59;;;;;;;4.05;1.50;;;;;;;3.72;100.00;99412.38;5074054;28;20047;-76
2022/01/06 03:28:28;;;;;;;4.70;1.50;;;;;;;3.77;100.00;99413.03;5074128;28;20098;-71
2022/01/06 03:30:57;;;;;;;3.65;1.80;;;;;;;3.83;100.00;99409.25;5074356;28;20048;-71
2022/01/06 03:33:26;;;;;;;7.63;1.73;;;;;;;3.87;100.00;99413.47;5074083;28;20056;-70
2022/01/06 03:35:54;;;;;;;4.97;1.70;;;;;;;3.79;100.00;99413.81;5072940;28;20517;-71
2022/01/06 03:38:22;;;;;;;4.28;1.50;;;;;;;3.65;100.00;99429.41;5073918;28;20040;-71
2022/01/06 03:40:51;;;;;;;5.80;1.70;;;;;;;3.59;100.00;99417.38;5074180;28;20102;-71
2022/01/06 03:43:19;;;;;;;4.40;1.85;;;;;;;3.57;100.00;99407.78;5074945;28;20041;-71
2022/01/06 03:45:47;;;;;;;5.43;1.98;;;;;;;3.55;100.00;99409.66;5074436;28;20472;-71
2022/01/06 03:48:17;;;;;;;4.53;1.98;;;;;;;3.56;100.00;99421.91;5073726;28;20051;-71
2022/01/06 03:50:45;;;;;;;3.13;1.70;;;;;;;3.50;100.00;99415.16;5073997;28;20044;-71
2022/01/06 03:53:13;;;;;;;5.70;1.60;;;;;;;3.52;100.00;99423.84;5073616;28;20051;-71
2022/01/06 03:55:42;;;;;;;4.07;1.70;;;;;;;3.58;100.00;99418.28;5074716;28;20044;-71
2022/01/06 03:58:11;;;;;;;4.65;1.60;;;;;;;3.56;100.00;99429.81;5073570;28;20052;-71
2022/01/06 04:00:39;;;;;;;4.45;1.80;;;;;;;3.57;100.00;99431.53;5074061;28;20057;-71
2022/01/06 04:03:08;;;;;;;3.83;1.60;;;;;;;3.47;100.00;99424.94;5073494;28;20040;-71
2022/01/06 04:05:37;;;;;;;3.10;1.58;;;;;;;3.42;100.00;99444.47;5073872;28;20131;-70
2022/01/06 04:08:06;;;;;;;4.45;1.67;;;;;;;3.36;100.00;99447.38;5073668;28;20052;-70
2022/01/06 04:10:34;;;;;;;4.07;1.75;;;;;;;3.42;100.00;99441.84;5073651;28;20068;-71
2022/01/06 04:13:02;;;;;;;5.25;1.98;;;;;;;3.45;100.00;99428.50;5073264;28;20040;-71
2022/01/06 04:15:30;;;;;;;4.47;2.00;;;;;;;3.44;100.00;99421.53;5073477;28;20131;-71
2022/01/06 04:17:59;;;;;;;4.45;1.70;;;;;;;3.49;100.00;99429.25;5073512;28;20448;-71
2022/01/06 04:20:27;;;;;;;3.67;1.70;;;;;;;3.55;100.00;99433.38;5073209;28;20036;-71
2022/01/06 04:22:57;;;;;;;5.50;1.58;;;;;;;3.52;100.00;99423.84;5072551;28;20040;-71
2022/01/06 04:25:25;;;;;;;3.33;1.42;;;;;;;3.54;100.00;99436.94;5073111;28;20500;-71
2022/01/06 04:27:53;;;;;;;4.93;1.85;;;;;;;3.58;100.00;99439.41;5073440;28;20098;-71
2022/01/06 04:30:22;;;;;;;4.03;1.70;;;;;;;3.56;100.00;99445.63;5073034;28;20041;-71
2022/01/06 04:32:50;;;;;;;4.15;1.50;;;;;;;3.43;100.00;99442.69;5072942;28;20044;-71
2022/01/06 04:35:18;;;;;;;4.43;1.50;;;;;;;3.38;100.00;99444.69;5072590;28;20052;-71
2022/01/06 04:37:47;;;;;;;3.88;1.35;;;;;;;3.37;100.00;99462.25;5072894;28;20489;-71
2022/01/06 04:40:17;;;;;;;3.00;1.23;;;;;;;3.31;100.00;99467.81;5072941;28;20036;-72
2022/01/06 04:42:45;;;;;;;3.78;1.70;;;;;;;3.30;100.00;99466.09;5073275;28;20052;-71
2022/01/06 04:45:13;;;;;;;4.68;1.70;;;;;;;3.36;100.00;99457.91;5072580;28;20041;-72
2022/01/06 04:47:42;;;;;;;3.78;1.70;;;;;;;3.39;100.00;99465.72;5072806;28;20474;-72
2022/01/06 04:50:10;;;;;;;2.30;1.52;;;;;;;3.52;100.00;99462.53;5072501;28;20041;-70
2022/01/06 04:52:38;;;;;;;4.78;1.73;;;;;;;3.43;100.00;99467.28;5072700;28;20068;-70
2022/01/06 04:55:07;;;;;;;4.20;1.77;;;;;;;3.39;100.00;99464.84;5072728;28;20461;-74
2022/01/06 04:57:37;;;;;;;3.97;1.70;;;;;;;3.44;100.00;99468.13;5072778;28;20067;-70
2022/01/06 05:00:07;;;;;;;3.78;1.70;;;;;;;3.37;100.00;99472.81;5073033;28;20106;-70
2022/01/06 05:02:36;;;;;;;5.75;1.55;;;;;;;3.28;100.00;99480.25;5072954;28;20124;-70
2022/01/06 05:05:05;;;;;;;5.90;1.80;;;;;;;3.22;100.00;99491.94;5072965;28;20490;-70
2022/01/06 05:07:34;;;;;;;3.17;1.58;;;;;;;3.19;100.00;99499.97;5072682;28;20051;-70
2022/01/06 05:10:02;;;;;;;5.88;2.00;;;;;;;3.20;100.00;99506.09;5072929;28;20372;-70
2022/01/06 05:12:31;;;;;;;4.25;1.70;;;;;;;3.16;100.00;99505.34;5072075;28;20076;-71
2022/01/06 05:15:01;;;;;;;6.03;1.80;;;;;;;3.18;100.00;99511.41;5072847;28;20040;-71
2022/01/06 05:17:29;;;;;;;3.53;1.90;;;;;;;3.20;100.00;99516.63;5072234;28;20062;-71
2022/01/06 05:19:57;;;;;;;3.13;1.77;;;;;;;3.20;100.00;99517.50;5072725;28;20106;-71
2022/01/06 05:22:26;;;;;;;8.00;2.30;;;;;;;3.28;100.00;99514.50;5072222;28;20436;-71
2022/01/06 05:24:54;;;;;;;6.43;1.98;;;;;;;3.31;100.00;99524.94;5072836;28;20037;-71
2022/01/06 05:27:23;;;;;;;3.83;1.80;;;;;;;3.12;100.00;99520.44;5072380;28;20045;-71
2022/01/06 05:29:51;;;;;;;3.30;1.48;;;;;;;3.05;100.00;99521.59;5072597;28;20044;-70
2022/01/06 05:32:21;;;;;;;5.00;1.95;;;;;;;3.08;100.00;99531.16;5071964;28;20045;-70
2022/01/06 05:34:49;;;;;;;4.30;1.50;;;;;;;3.04;100.00;99533.06;5076530;28;20043;-72
2022/01/06 05:37:17;;;;;;;6.38;2.13;;;;;;;3.06;100.00;99527.72;5076155;28;20044;-69
2022/01/06 05:39:45;;;;;;;6.55;1.85;;;;;;;3.07;100.00;99540.84;5076251;28;20049;-70
2022/01/06 05:42:14;;;;;;;5.75;1.98;;;;;;;3.08;100.00;99539.91;5076022;28;20037;-71
2022/01/06 05:44:42;;;;;;;5.10;1.90;;;;;;;3.15;100.00;99541.38;5076090;28;20047;-71
2022/01/06 05:47:11;;;;;;;4.40;2.00;;;;;;;3.13;100.00;99545.00;5076034;28;20101;-72
2022/01/06 05:49:40;;;;;;;4.15;2.30;;;;;;;3.09;100.00;99546.06;5076154;28;20044;-70
2022/01/06 05:52:08;;;;;;;3.08;1.42;;;;;;;3.13;100.00;99543.22;5076082;28;20045;-70
2022/01/06 05:54:37;;;;;;;3.45;1.55;;;;;;;3.07;100.00;99543.47;5075998;28;20041;-70
2022/01/06 05:57:10;;;;;;;6.55;1.90;;;;;;;3.00;100.00;99552.56;5074994;28;20061;-71
2022/01/06 05:59:38;;;;;;;5.70;1.92;;;;;;;3.01;100.00;99548.16;5075593;28;20405;-71
2022/01/06 06:02:06;;;;;;;3.20;1.40;;;;;;;3.01;100.00;99558.69;5075920;28;20047;-70
2022/01/06 06:04:35;;;;;;;5.43;2.00;;;;;;;3.05;100.00;99557.63;5075937;28;20047;-70
2022/01/06 06:07:05;;;;;;;5.68;2.00;;;;;;;3.04;100.00;99554.16;5075806;28;20116;-73
2022/01/06 06:09:33;;;;;;;5.43;1.90;;;;;;;3.00;100.00;99570.16;5075513;28;20072;-72
2022/01/06 06:12:06;;;;;;;7.22;2.03;;;;;;;2.97;100.00;99559.72;5075284;28;20098;-70
2022/01/06 06:14:34;;;;;;;5.18;2.00;;;;;;;2.98;100.00;99562.28;5075562;28;20485;-70
2022/01/06 06:17:03;;;;;;;6.18;1.65;;;;;;;2.91;100.00;99570.53;5075894;28;20079;-70
2022/01/06 06:19:33;;;;;;;6.65;2.33;;;;;;;2.87;100.00;99573.25;5075487;28;20041;-71
2022/01/06 06:22:01;;;;;;;5.45;2.00;;;;;;;2.91;100.00;99578.44;5075521;28;20044;-69
2022/01/06 06:24:31;;;;;;;5.00;2.05;;;;;;;2.98;100.00;99595.69;5075176;28;20032;-68
2022/01/06 06:27:00;;;;;;;5.38;2.13;;;;;;;3.02;100.00;99599.94;5075208;28;20457;-69
2022/01/06 06:29:28;;;;;;;7.82;2.10;;;;;;;3.05;100.00;99589.25;5074853;28;20448;-69
2022/01/06 06:31:57;;;;;;;5.32;2.35;;;;;;;3.01;100.00;99600.84;5075407;28;20127;-69
2022/01/06 06:34:25;;;;;;;5.43;1.95;;;;;;;3.01;100.00;99596.44;5075177;28;20468;-69
2022/01/06 06:36:53;;;;;;;4.72;2.25;;;;;;;3.03;100.00;99593.75;5074958;28;20481;-68
2022/01/06 06:39:21;;;;;;;4.93;2.42;;;;;;;2.97;100.00;99604.50;5074665;28;20051;-69
2022/01/06 06:41:51;;;;;;;7.40;2.65;;;;;;;2.99;100.00;99611.47;5074177;28;20147;-70
2022/01/06 06:44:19;;;;;;;8.70;2.55;;;;;;;3.04;100.00;99603.34;5074420;28;20056;-69
2022/01/06 06:46:47;;;;;;;5.38;2.55;;;;;;;3.00;100.00;99601.78;5075035;28;20044;-69
2022/01/06 06:49:15;;;;;;;5.57;2.10;;;;;;;2.97;100.00;99610.63;5074778;28;20474;-70
2022/01/06 06:51:44;;;;;;;7.65;2.40;;;;;;;2.96;100.00;99608.06;5075278;28;20548;-69
2022/01/06 06:54:13;;;;;;;5.70;2.15;;;;;;;2.97;100.00;99604.50;5074714;28;20043;-69
2022/01/06 06:56:42;;;;;;;6.95;2.60;;;;;;;2.95;100.00;99609.00;5075218;28;20045;-68
2022/01/06 06:59:12;;;;;;;5.72;2.67;;;;;;;2.90;100.00;99616.22;5074463;28;20486;-69
2022/01/06 07:01:40;;;;;;;8.80;2.90;;;;;;;2.97;100.00;99609.78;5074798;28;20047;-69
2022/01/06 07:04:08;;;;;;;8.68;2.85;;;;;;;3.06;100.00;99626.09;5074972;28;20125;-69
2022/01/06 07:06:36;;;;;;;6.40;2.60;;;;;;;3.01;100.00;99621.94;5074156;28;20071;-69
2022/01/06 07:09:05;;;;;;;7.70;2.60;;;;;;;2.94;100.00;99630.97;5074274;28;20041;-69
2022/01/06 07:11:33;;;;;;;7.82;2.75;;;;;;;2.87;100.00;99630.34;5074015;28;20566;-69
2022/01/06 07:14:01;;;;;;;6.47;2.47;;;;;;;2.96;100.00;99644.94;5074532;28;20131;-70
2022/01/06 07:16:31;;;;;;;4.93;2.53;;;;;;;2.98;100.00;99637.84;5074054;28;20049;-67
2022/01/06 07:18:59;;;;;;;6.70;2.90;;;;;;;3.00;100.00;99647.41;5074622;28;20036;-68
2022/01/06 07:21:27;;;;;;;8.00;2.88;;;;;;;3.01;100.00;99653.53;5074266;28;20474;-69
2022/01/06 07:23:56;;;;;;;6.82;3.00;;;;;;;3.03;100.00;99647.28;5074490;28;20048;-69
2022/01/06 07:26:24;;;;;;;6.95;2.65;;;;;;;3.03;100.00;99662.25;5073904;28;20044;-68
2022/01/06 07:28:52;;;;;;;8.80;2.80;;;;;;;3.09;100.00;99664.66;5074394;28;20398;-70
2022/01/06 07:31:20;;;;;;;8.40;2.60;;;;;;;3.06;100.00;99670.88;5073918;28;20090;-70
2022/01/06 07:33:50;;;;;;;4.30;1.65;;;;;;;3.05;100.00;99663.03;5073655;28;20585;-68
2022/01/06 07:36:18;;;;;;;7.20;2.80;;;;;;;3.04;100.00;99675.34;5074141;28;20421;-73
2022/01/06 07:38:47;;;;;;;5.85;2.30;;;;;;;3.06;100.00;99667.38;5073842;28;20102;-70
2022/01/06 07:41:16;;;;;;;11.75;3.20;;;;;;;3.02;100.00;99692.16;5073729;28;20448;-70
2022/01/06 07:43:45;;;;;;;8.75;2.80;;;;;;;3.19;100.00;99686.22;5072818;28;20056;-70
2022/01/06 07:46:13;;;;;;;5.35;2.28;;;;;;;3.17;100.00;99691.53;5074143;28;20044;-68
2022/01/06 07:48:56;;;;;;;7.10;2.92;;;;;;;3.16;100.00;99701.22;5073483;28;20045;-68
2022/01/06 07:51:26;;;;;;;9.10;3.20;;;;;;;3.25;100.00;99720.25;5073569;28;20051;-67
2022/01/06 07:53:56;;;;;;;5.07;2.20;;;;;;;3.27;100.00;99716.63;5073592;28;20052;-69
2022/01/06 07:56:24;;;;;;;7.88;2.90;;;;;;;3.33;100.00;99721.66;5072794;28;20044;-69
2022/01/06 07:58:53;;;;;;;6.50;2.70;;;;;;;3.36;100.00;99728.59;5073414;28;20044;-68
2022/01/06 08:01:21;;;;;;;6.85;2.70;;;;;;;3.43;100.00;99740.63;5073577;28;20044;-74
2022/01/06 08:03:49;;;;;;;9.38;3.00;;;;;;;3.32;100.00;99738.41;5073765;28;20048;-68
2022/01/06 08:06:18;;;;;;;7.18;2.47;;;;;;;3.29;100.00;99732.41;5073532;28;20033;-68
2022/01/06 08:08:48;;;;;;;7.32;2.75;;;;;;;3.28;100.00;99742.09;5073547;28;20122;-68
2022/01/06 08:11:17;;;;;;;8.77;2.55;;;;;;;3.31;100.00;99749.88;5073674;28;20044;-67
2022/01/06 08:13:50;;;;;;;5.38;2.28;;;;;;;3.33;100.00;99732.22;5073306;28;20140;-67
2022/01/06 08:16:18;;;;;;;6.35;2.40;;;;;;;3.24;100.00;99748.38;5073407;28;20098;-68
2022/01/06 08:18:46;;;;;;;6.97;2.65;;;;;;;3.28;100.00;99744.72;5072907;28;20050;-67
2022/01/06 08:21:14;;;;;;;8.10;2.65;;;;;;;3.34;100.00;99747.09;5073118;28;20036;-68
2022/01/06 08:23:43;;;;;;;4.75;2.13;;;;;;;3.33;100.00;99755.94;5073144;28;20047;-67
2022/01/06 08:26:17;;;;;;;5.97;2.47;;;;;;;3.34;100.00;99757.66;5073420;28;20049;-69
2022/01/06 08:28:46;;;;;;;5.20;2.70;;;;;;;3.41;100.00;99750.38;5072957;28;20044;-68
2022/01/06 08:31:14;;;;;;;8.77;2.60;;;;;;;3.44;100.00;99766.06;5073988;28;20071;-69
2022/01/06 08:33:43;;;;;;;7.57;2.80;;;;;;;3.53;100.00;99763.06;5072907;28;20071;-67
2022/01/06 08:36:11;;;;;;;7.88;2.67;;;;;;;3.61;100.00;99768.06;5072470;28;20493;-68
2022/01/06 08:38:39;;;;;;;8.52;2.55;;;;;;;3.61;100.00;99775.97;5072546;28;20460;-68
2022/01/06 08:41:08;;;;;;;6.93;2.75;;;;;;;3.57;100.00;99793.69;5073268;28;20370;-68
2022/01/06 08:43:38;;;;;;;5.82;2.47;;;;;;;3.53;100.00;99783.31;5072743;28;20054;-68
2022/01/06 08:46:06;;;;;;;8.30;3.10;;;;;;;3.71;100.00;99794.00;5073108;28;20072;-68
2022/01/06 08:48:34;;;;;;;9.38;2.58;;;;;;;3.77;100.00;99792.91;5072553;28;20127;-69
2022/01/06 08:51:03;;;;;;;5.50;2.17;;;;;;;3.72;100.00;99789.59;5072816;28;20095;-68
2022/01/06 08:53:31;;;;;;;3.65;1.77;;;;;;;3.73;100.00;99791.28;5072463;28;20045;-69
2022/01/06 08:55:59;;;;;;;6.20;2.78;;;;;;;3.77;100.00;99792.91;5073106;28;20041;-68
2022/01/06 08:58:27;;;;;;;5.72;2.40;;;;;;;3.88;100.00;99795.97;5071422;28;20056;-69
2022/01/06 09:00:57;;;;;;;4.97;2.40;;;;;;;3.76;100.00;99799.06;5073470;28;20048;-69
2022/01/06 09:03:25;;;;;;;6.70;2.90;;;;;;;3.78;100.00;99821.00;5072850;28;20044;-69
2022/01/06 09:05:53;;;;;;;8.85;3.13;;;;;;;3.77;100.00;99814.03;5072543;28;20123;-68
2022/01/06 09:08:22;;;;;;;6.90;2.58;;;;;;;3.74;100.00;99808.84;5075392;28;20036;-68
2022/01/06 09:10:50;;;;;;;6.88;2.67;;;;;;;3.78;100.00;99810.47;5079295;28;20131;-68
2022/01/06 09:13:27;;;;;;;7.55;2.40;;;;;;;3.85;100.00;99809.28;5079385;28;20040;-70
2022/01/06 09:15:57;;;;;;;5.40;1.90;;;;;;;3.73;100.00;99817.69;5079280;28;20052;-68
2022/01/06 09:18:26;;;;;;;8.18;2.15;;;;;;;3.66;100.00;99809.13;5079833;28;20090;-67
2022/01/06 09:20:56;;;;;;;7.68;2.60;;;;;;;3.66;100.00;99819.69;5079224;28;20052;-68
2022/01/06 09:23:24;;;;;;;5.25;2.45;;;;;;;3.78;100.00;99814.88;5079557;28;20051;-69
2022/01/06 09:25:53;;;;;;;8.32;2.30;;;;;;;3.87;100.00;99815.38;5079441;28;20044;-69
2022/01/06 09:28:21;;;;;;;4.25;1.98;;;;;;;3.81;100.00;99805.06;5079364;28;20485;-68
2022/01/06 09:30:51;;;;;;;8.35;2.40;;;;;;;3.72;100.00;99810.69;5079056;28;20052;-68
2022/01/06 09:33:22;;;;;;;8.10;2.25;;;;;;;3.82;100.00;99798.84;5079554;28;20440;-68
2022/01/06 09:35:52;;;;;;;5.78;2.33;;;;;;;3.96;100.00;99809.72;5079023;28;20458;-67
2022/01/06 09:38:21;;;;;;;5.03;2.38;;;;;;;4.08;100.00;99800.44;5079326;28;20087;-68
2022/01/06 09:40:49;;;;;;;8.60;2.70;;;;;;;4.11;100.00;99802.94;5079048;28;20040;-68
2022/01/06 09:43:25;;;;;;;8.30;2.05;;;;;;;4.12;100.00;99814.38;5079309;28;20050;-68
2022/01/06 09:45:54;;;;;;;3.13;1.58;;;;;;;4.05;100.00;99811.09;5079245;28;20366;-68
2022/01/06 09:48:25;;;;;;;7.50;2.13;;;;;;;4.09;100.00;99819.78;5079390;28;20048;-67
2022/01/06 09:50:54;;;;;;;6.28;2.40;;;;;;;4.14;100.00;99812.53;5078708;28;20055;-67
2022/01/06 09:53:22;;;;;;;6.75;2.33;;;;;;;4.23;100.00;99820.06;5079268;28;20052;-68
2022/01/06 09:55:50;;;;;;;7.30;2.15;;;;;;;4.32;100.00;99820.53;5078794;28;20048;-68
2022/01/06 09:58:23;;;;;;;4.18;2.20;;;;;;;4.36;100.00;99823.09;5078871;28;20040;-68
2022/01/06 10:00:53;;;;;;;7.65;2.38;;;;;;;4.53;100.00;99826.72;5079166;28;20410;-69
2022/01/06 10:03:21;;;;;;;6.05;2.38;;;;;;;4.65;100.00;99814.78;5079211;28;20413;-67
2022/01/06 10:05:51;;;;;;;5.07;2.30;;;;;;;4.70;100.00;99814.56;5077173;28;20171;-69
2022/01/06 10:08:28;;;;;;;6.80;2.28;;;;;;;4.74;100.00;99818.81;5079101;28;20474;-68
2022/01/06 10:11:12;;;;;;;5.90;2.03;;;;;;;4.80;100.00;99818.53;5079219;28;20116;-68
2022/01/06 10:13:43;;;;;;;6.90;2.20;;;;;;;4.70;100.00;99822.50;5078813;28;20426;-68
2022/01/06 10:16:16;;;;;;;6.13;2.65;;;;;;;4.66;100.00;99832.34;5079032;28;20068;-67
2022/01/06 10:19:00;;;;;;;6.22;2.05;;;;;;;4.75;100.00;99844.31;5078727;28;20500;-68
2022/01/06 10:21:37;;;;;;;9.27;2.28;;;;;;;4.76;100.00;99838.97;5074807;28;20401;-68
2022/01/06 10:24:09;;;;;;;8.60;2.55;;;;;;;4.91;100.00;99842.69;5075830;28;20040;-68
2022/01/06 10:26:39;;;;;;;4.95;2.10;;;;;;;5.03;100.00;99836.06;5075472;28;20079;-69
2022/01/06 10:29:09;;;;;;;5.80;2.00;;;;;;;5.10;100.00;99838.34;5075754;28;20448;-68
2022/01/06 10:31:38;;;;;;;4.30;1.98;;;;;;;5.09;100.00;99844.53;5075308;28;20067;-69
2022/01/06 10:34:09;;;;;;;8.27;2.47;;;;;;;5.18;100.00;99846.78;5075777;28;20036;-67
2022/01/06 10:36:39;;;;;;;7.50;2.13;;;;;;;5.01;100.00;99862.53;5074999;28;20379;-69
2022/01/06 10:39:10;;;;;;;6.03;2.03;;;;;;;5.08;100.00;99849.91;5075603;28;20116;-67
2022/01/06 10:41:39;;;;;;;4.65;1.90;;;;;;;5.07;100.00;99861.41;5074878;28;20046;-69
2022/01/06 10:44:13;;;;;;;5.78;1.65;;;;;;;5.21;100.00;99860.78;5074276;28;20045;-68
2022/01/06 10:46:44;;;;;;;5.78;1.92;;;;;;;5.25;100.00;99863.25;5075071;28;20049;-69
2022/01/06 10:49:14;;;;;;;2.97;1.50;;;;;;;5.21;100.00;99866.97;5075096;28;20041;-68
2022/01/06 10:51:49;;;;;;;6.78;2.05;;;;;;;5.31;100.00;99856.84;5074966;28;20051;-68
2022/01/06 10:54:21;;;;;;;3.83;2.00;;;;;;;5.34;100.00;99867.28;5075008;28;20094;-67
2022/01/06 10:56:57;;;;;;;6.93;2.50;;;;;;;5.25;100.00;99865.03;5074621;28;20041;-69
2022/01/06 10:59:29;;;;;;;8.27;2.50;;;;;;;5.17;100.00;99866.22;5074736;28;20428;-67
2022/01/06 11:01:58;;;;;;;5.13;2.38;;;;;;;5.10;100.00;99871.84;5074709;28;20045;-68
2022/01/06 11:04:26;;;;;;;5.63;2.20;;;;;;;5.06;100.00;99849.97;5075136;28;20038;-68
2022/01/06 11:06:56;;;;;;;2.20;1.10;;;;;;;5.16;100.00;99842.50;5074662;28;20080;-68
2022/01/06 11:09:26;;;;;;;4.63;1.98;;;;;;;5.12;100.00;99852.38;5074917;28;20040;-68
2022/01/06 11:14:45;;;;;;;3.88;1.60;;;;;;;5.14;100.00;99850.50;5072660;28;20551;-68
2022/01/06 11:17:14;;;;;;;6.03;2.33;;;;;;;5.24;100.00;99853.59;5074921;28;20055;-69
2022/01/06 11:19:42;;;;;;;6.25;2.10;;;;;;;5.33;100.00;99865.56;5074317;28;20049;-69
2022/01/06 11:22:13;;;;;;;5.13;2.08;;;;;;;5.35;100.00;99853.97;5074581;28;20040;-69
2022/01/06 11:24:52;;;;;;;4.13;1.85;;;;;;;5.31;100.00;99865.63;5074098;28;20160;-69
2022/01/06 11:27:31;;;;;;;5.32;2.22;;;;;;;5.27;100.00;99868.47;5073779;28;20131;-67
2022/01/06 11:30:10;;;;;;;6.40;2.20;;;;;;;5.28;100.00;99883.41;5074019;28;20048;-68
2022/01/06 11:32:38;;;;;;;4.95;2.15;;;;;;;5.17;100.00;99866.22;5073991;28;20048;-69
2022/01/06 11:35:11;;;;;;;4.85;1.98;;;;;;;5.13;100.00;99869.09;5074142;28;20052;-68
2022/01/06 11:37:45;;;;;;;6.78;2.53;;;;;;;5.21;100.00;99866.97;5074214;28;20036;-68
2022/01/06 11:40:15;;;;;;;6.20;2.30;;;;;;;5.24;100.00;99872.09;5074366;28;20489;-68
2022/01/06 11:42:54;;;;;;;5.72;2.38;;;;;;;5.27;100.00;99866.69;5074026;28;20037;-69
2022/01/06 11:45:22;;;;;;;8.35;2.40;;;;;;;5.17;100.00;99876.81;5073985;28;20501;-68
2022/01/06 11:48:00;;;;;;;8.40;2.33;;;;;;;5.17;100.00;99882.09;5073806;28;20203;-68
2022/01/06 11:50:29;;;;;;;5.22;2.20;;;;;;;5.25;100.00;99888.84;5073712;28;20432;-68
2022/01/06 11:53:00;;;;;;;4.75;2.28;;;;;;;5.12;100.00;99878.81;5073618;28;20047;-68